createdAt,value
2022-11-10T00:00:03.413Z,75.00
2022-11-10T00:00:34.893Z,75.00
2022-11-10T00:01:06.366Z,75.10
2022-11-10T00:01:37.829Z,75.00
2022-11-10T00:02:09.292Z,75.00
2022-11-10T00:02:40.773Z,75.10
2022-11-10T00:03:12.245Z,75.00
2022-11-10T00:03:43.759Z,75.10
2022-11-10T00:04:15.295Z,75.10
2022-11-10T00:04:46.813Z,75.00
2022-11-10T00:05:18.278Z,75.10
2022-11-10T00:05:49.769Z,75.00
2022-11-10T00:06:21.228Z,75.10
2022-11-10T00:06:52.861Z,75.00
2022-11-10T00:07:24.618Z,75.00
2022-11-10T00:07:56.165Z,75.00
2022-11-10T00:08:27.769Z,75.00
2022-11-10T00:08:59.311Z,75.00
2022-11-10T00:09:30.978Z,75.00
2022-11-10T00:10:02.448Z,75.00
2022-11-10T00:10:33.914Z,74.90
2022-11-10T00:11:05.379Z,75.00
2022-11-10T00:11:36.881Z,74.90
2022-11-10T00:12:08.415Z,74.90
2022-11-10T00:12:39.874Z,75.00
2022-11-10T00:13:11.339Z,75.00
2022-11-10T00:13:42.852Z,74.80
2022-11-10T00:14:14.337Z,74.80
2022-11-10T00:14:45.914Z,74.80
2022-11-10T00:15:17.433Z,74.80
2022-11-10T00:15:48.901Z,74.90
2022-11-10T00:16:20.375Z,74.80
2022-11-10T00:16:51.841Z,74.80
2022-11-10T00:17:23.324Z,74.80
2022-11-10T00:17:54.796Z,74.80
2022-11-10T00:18:26.315Z,74.70
2022-11-10T00:18:57.775Z,74.80
2022-11-10T00:19:29.240Z,74.80
2022-11-10T00:20:00.705Z,74.80
2022-11-10T00:20:32.174Z,74.90
2022-11-10T00:21:03.640Z,74.80
2022-11-10T00:21:35.117Z,74.80
2022-11-10T00:22:06.641Z,74.80
2022-11-10T00:22:38.107Z,74.80
2022-11-10T00:23:09.574Z,74.90
2022-11-10T00:23:41.035Z,74.80
2022-11-10T00:24:12.500Z,74.80
2022-11-10T00:24:43.977Z,74.80
2022-11-10T00:25:15.536Z,74.80
2022-11-10T00:25:47.002Z,74.80
2022-11-10T00:26:18.467Z,74.80
2022-11-10T00:26:49.943Z,74.80
2022-11-10T00:27:21.456Z,74.80
2022-11-10T00:27:53.008Z,74.80
2022-11-10T00:28:24.479Z,74.80
2022-11-10T00:28:55.952Z,74.80
2022-11-10T00:29:27.440Z,74.80
2022-11-10T00:29:58.904Z,74.80
2022-11-10T00:30:30.363Z,74.80
2022-11-10T00:31:01.842Z,74.80
2022-11-10T00:31:33.384Z,74.80
2022-11-10T00:32:04.869Z,74.80
2022-11-10T00:32:36.341Z,74.80
2022-11-10T00:33:07.807Z,74.70
2022-11-10T00:33:39.273Z,74.80
2022-11-10T00:34:10.744Z,74.80
2022-11-10T00:34:42.227Z,74.80
2022-11-10T00:35:13.694Z,74.70
2022-11-10T00:35:45.161Z,74.80
2022-11-10T00:36:16.632Z,74.80
2022-11-10T00:36:48.120Z,74.80
2022-11-10T00:37:19.591Z,74.80
2022-11-10T00:37:51.055Z,74.80
2022-11-10T00:38:22.521Z,74.80
2022-11-10T00:38:53.985Z,74.80
2022-11-10T00:39:25.450Z,75.00
2022-11-10T00:39:56.953Z,74.80
2022-11-10T00:40:28.426Z,74.80
2022-11-10T00:40:59.904Z,74.80
2022-11-10T00:41:31.538Z,74.80
2022-11-10T00:42:03.040Z,75.00
2022-11-10T00:42:34.511Z,74.90
2022-11-10T00:43:05.981Z,74.90
2022-11-10T00:43:37.448Z,74.90
2022-11-10T00:44:08.913Z,74.90
2022-11-10T00:44:40.397Z,74.80
2022-11-10T00:45:11.876Z,74.80
2022-11-10T00:45:43.355Z,74.80
2022-11-10T00:46:14.826Z,74.80
2022-11-10T00:46:46.300Z,74.80
2022-11-10T00:47:17.762Z,74.80
2022-11-10T00:47:49.232Z,74.70
2022-11-10T00:48:20.696Z,74.90
2022-11-10T00:48:52.159Z,74.80
2022-11-10T00:49:23.620Z,74.80
2022-11-10T00:49:55.092Z,74.80
2022-11-10T00:50:26.623Z,74.80
2022-11-10T00:50:58.148Z,74.80
2022-11-10T00:51:29.623Z,74.80
2022-11-10T00:52:01.108Z,74.80
2022-11-10T00:52:32.572Z,74.80
2022-11-10T00:53:04.048Z,75.00
2022-11-10T00:53:35.507Z,74.80
2022-11-10T00:54:06.979Z,74.80
2022-11-10T00:54:38.445Z,75.00
2022-11-10T00:55:09.923Z,74.90
2022-11-10T00:55:41.396Z,75.00
2022-11-10T00:56:12.872Z,75.00
2022-11-10T00:56:44.330Z,75.00
2022-11-10T00:57:15.801Z,75.00
2022-11-10T00:57:47.271Z,75.00
2022-11-10T00:58:18.749Z,75.00
2022-11-10T00:58:50.225Z,75.00
2022-11-10T00:59:21.750Z,75.00
2022-11-10T00:59:53.225Z,75.10
2022-11-10T01:00:24.690Z,75.10
2022-11-10T01:00:56.243Z,75.10
2022-11-10T01:01:27.834Z,75.10
2022-11-10T01:01:59.341Z,75.00
2022-11-10T01:02:30.819Z,75.00
2022-11-10T01:03:02.293Z,75.00
2022-11-10T01:03:33.765Z,75.00
2022-11-10T01:04:05.245Z,75.00
2022-11-10T01:04:36.727Z,75.00
2022-11-10T01:05:08.189Z,75.00
2022-11-10T01:05:39.707Z,74.90
2022-11-10T01:06:11.189Z,74.90
2022-11-10T01:06:42.758Z,74.80
2022-11-10T01:07:14.270Z,74.80
2022-11-10T01:07:45.777Z,74.80
2022-11-10T01:08:19.988Z,74.80
2022-11-10T01:08:51.474Z,74.80
2022-11-10T01:09:22.956Z,74.80
2022-11-10T01:09:54.430Z,74.80
2022-11-10T01:10:25.896Z,74.70
2022-11-10T01:10:57.379Z,74.70
2022-11-10T01:11:28.864Z,74.80
2022-11-10T01:12:00.341Z,74.80
2022-11-10T01:12:31.828Z,74.80
2022-11-10T01:13:03.294Z,74.80
2022-11-10T01:13:34.770Z,74.70
2022-11-10T01:14:06.245Z,74.80
2022-11-10T01:14:37.730Z,74.70
2022-11-10T01:15:09.213Z,74.70
2022-11-10T01:15:40.689Z,74.70
2022-11-10T01:16:12.156Z,74.70
2022-11-10T01:16:43.637Z,74.70
2022-11-10T01:17:15.116Z,74.70
2022-11-10T01:17:46.626Z,74.80
2022-11-10T01:18:18.094Z,74.80
2022-11-10T01:18:49.577Z,75.00
2022-11-10T01:19:21.036Z,74.80
2022-11-10T01:19:52.509Z,74.80
2022-11-10T01:20:23.976Z,74.80
2022-11-10T01:20:55.447Z,74.80
2022-11-10T01:21:26.925Z,74.80
2022-11-10T01:21:58.399Z,74.80
2022-11-10T01:22:29.874Z,74.80
2022-11-10T01:23:01.344Z,74.80
2022-11-10T01:23:32.820Z,74.80
2022-11-10T01:24:04.282Z,74.80
2022-11-10T01:24:35.740Z,74.80
2022-11-10T01:25:07.206Z,74.80
2022-11-10T01:25:38.682Z,74.70
2022-11-10T01:26:10.158Z,74.70
2022-11-10T01:26:41.626Z,74.70
2022-11-10T01:27:13.101Z,74.70
2022-11-10T01:27:44.602Z,74.60
2022-11-10T01:28:16.085Z,74.60
2022-11-10T01:28:47.628Z,74.60
2022-11-10T01:29:19.088Z,74.70
2022-11-10T01:29:50.554Z,74.70
2022-11-10T01:30:22.023Z,74.60
2022-11-10T01:30:53.494Z,74.60
2022-11-10T01:31:24.977Z,74.70
2022-11-10T01:31:56.451Z,74.70
2022-11-10T01:32:27.938Z,74.70
2022-11-10T01:32:59.433Z,74.80
2022-11-10T01:33:30.910Z,74.70
2022-11-10T01:34:02.376Z,74.80
2022-11-10T01:34:33.849Z,74.80
2022-11-10T01:35:05.317Z,74.80
2022-11-10T01:35:36.780Z,74.80
2022-11-10T01:36:08.262Z,74.80
2022-11-10T01:36:39.764Z,74.80
2022-11-10T01:37:11.253Z,74.80
2022-11-10T01:37:42.717Z,74.80
2022-11-10T01:38:14.188Z,74.80
2022-11-10T01:38:45.649Z,74.80
2022-11-10T01:39:17.116Z,74.80
2022-11-10T01:39:48.581Z,74.90
2022-11-10T01:40:20.188Z,74.90
2022-11-10T01:40:51.689Z,74.80
2022-11-10T01:41:23.162Z,74.80
2022-11-10T01:41:54.636Z,74.80
2022-11-10T01:42:26.121Z,74.80
2022-11-10T01:42:57.584Z,74.80
2022-11-10T01:43:29.044Z,74.90
2022-11-10T01:44:00.521Z,75.00
2022-11-10T01:44:32.021Z,74.80
2022-11-10T01:45:03.489Z,74.80
2022-11-10T01:45:34.968Z,74.80
2022-11-10T01:46:06.447Z,74.80
2022-11-10T01:46:37.917Z,74.80
2022-11-10T01:47:09.398Z,74.80
2022-11-10T01:47:40.861Z,74.80
2022-11-10T01:48:12.325Z,75.50
2022-11-10T01:48:43.897Z,74.80
2022-11-10T01:49:15.373Z,74.80
2022-11-10T01:49:46.837Z,74.70
2022-11-10T01:50:18.313Z,74.70
2022-11-10T01:50:49.792Z,74.70
2022-11-10T01:51:21.258Z,74.70
2022-11-10T01:51:52.739Z,74.70
2022-11-10T01:52:24.220Z,74.70
2022-11-10T01:52:55.683Z,74.70
2022-11-10T01:53:27.151Z,74.70
2022-11-10T01:53:58.697Z,74.70
2022-11-10T01:54:30.164Z,74.70
2022-11-10T01:55:01.645Z,74.70
2022-11-10T01:55:33.116Z,74.60
2022-11-10T01:56:04.598Z,74.70
2022-11-10T01:56:36.086Z,74.60
2022-11-10T01:57:07.617Z,74.60
2022-11-10T01:57:39.101Z,74.70
2022-11-10T01:58:10.563Z,74.70
2022-11-10T01:58:42.028Z,74.60
2022-11-10T01:59:13.494Z,74.70
2022-11-10T01:59:45.022Z,74.60
2022-11-10T02:00:16.568Z,74.60
2022-11-10T02:00:48.064Z,74.50
2022-11-10T02:01:19.574Z,74.50
2022-11-10T02:01:51.068Z,74.50
2022-11-10T02:02:22.534Z,74.50
2022-11-10T02:02:54.044Z,74.50
2022-11-10T02:03:25.565Z,74.50
2022-11-10T02:03:57.082Z,74.50
2022-11-10T02:04:28.553Z,74.40
2022-11-10T02:05:00.036Z,74.50
2022-11-10T02:05:31.536Z,74.40
2022-11-10T02:06:03.004Z,74.40
2022-11-10T02:06:34.531Z,74.40
2022-11-10T02:07:06.061Z,74.40
2022-11-10T02:07:37.561Z,74.40
2022-11-10T02:08:09.046Z,74.40
2022-11-10T02:08:40.522Z,74.50
2022-11-10T02:09:11.985Z,74.40
2022-11-10T02:09:43.469Z,74.70
2022-11-10T02:10:14.942Z,74.50
2022-11-10T02:10:46.412Z,74.50
2022-11-10T02:11:17.883Z,74.50
2022-11-10T02:11:49.365Z,74.50
2022-11-10T02:12:20.849Z,74.50
2022-11-10T02:12:52.333Z,74.50
2022-11-10T02:13:24.067Z,74.50
2022-11-10T02:13:55.662Z,74.70
2022-11-10T02:14:27.302Z,74.60
2022-11-10T02:14:58.763Z,74.70
2022-11-10T02:15:30.235Z,74.60
2022-11-10T02:16:01.708Z,74.60
2022-11-10T02:16:33.200Z,74.70
2022-11-10T02:17:04.668Z,74.60
2022-11-10T02:17:36.180Z,74.70
2022-11-10T02:18:07.657Z,74.50
2022-11-10T02:18:39.123Z,74.70
2022-11-10T02:19:10.593Z,74.60
2022-11-10T02:19:42.090Z,74.60
2022-11-10T02:20:13.589Z,74.80
2022-11-10T02:20:45.057Z,74.60
2022-11-10T02:21:16.524Z,74.60
2022-11-10T02:21:48.013Z,74.70
2022-11-10T02:22:19.481Z,74.60
2022-11-10T02:22:51.051Z,74.60
2022-11-10T02:23:22.824Z,74.70
2022-11-10T02:23:54.488Z,74.70
2022-11-10T02:24:25.957Z,74.60
2022-11-10T02:24:57.419Z,74.60
2022-11-10T02:25:28.896Z,74.60
2022-11-10T02:26:00.405Z,74.60
2022-11-10T02:26:31.893Z,74.50
2022-11-10T02:27:03.360Z,74.60
2022-11-10T02:27:34.828Z,74.40
2022-11-10T02:28:06.299Z,74.50
2022-11-10T02:28:37.809Z,74.50
2022-11-10T02:29:09.305Z,74.40
2022-11-10T02:29:40.779Z,74.40
2022-11-10T02:30:12.274Z,74.40
2022-11-10T02:30:43.749Z,74.40
2022-11-10T02:31:15.211Z,74.40
2022-11-10T02:31:46.682Z,74.50
2022-11-10T02:32:18.163Z,74.40
2022-11-10T02:32:49.639Z,74.40
2022-11-10T02:33:21.458Z,74.50
2022-11-10T02:33:53.180Z,74.40
2022-11-10T02:34:24.660Z,74.40
2022-11-10T02:34:56.129Z,74.50
2022-11-10T02:35:27.613Z,74.40
2022-11-10T02:35:59.082Z,74.40
2022-11-10T02:36:30.535Z,74.50
2022-11-10T02:37:01.991Z,74.40
2022-11-10T02:37:33.493Z,74.40
2022-11-10T02:38:04.999Z,74.40
2022-11-10T02:38:36.480Z,74.30
2022-11-10T02:39:07.959Z,74.30
2022-11-10T02:39:39.429Z,74.30
2022-11-10T02:40:10.897Z,74.30
2022-11-10T02:40:42.377Z,74.30
2022-11-10T02:41:13.845Z,74.30
2022-11-10T02:41:45.314Z,74.40
2022-11-10T02:42:16.796Z,74.20
2022-11-10T02:42:48.277Z,74.20
2022-11-10T02:43:20.158Z,74.40
2022-11-10T02:43:51.864Z,74.30
2022-11-10T02:44:23.341Z,74.30
2022-11-10T02:44:54.806Z,74.20
2022-11-10T02:45:26.276Z,74.30
2022-11-10T02:45:57.762Z,74.40
2022-11-10T02:46:29.236Z,74.40
2022-11-10T02:47:00.697Z,74.40
2022-11-10T02:47:32.160Z,74.40
2022-11-10T02:48:03.637Z,74.40
2022-11-10T02:48:35.129Z,74.40
2022-11-10T02:49:06.643Z,74.40
2022-11-10T02:49:38.119Z,74.40
2022-11-10T02:50:09.590Z,74.50
2022-11-10T02:50:41.081Z,74.40
2022-11-10T02:51:12.544Z,74.40
2022-11-10T02:51:44.034Z,74.40
2022-11-10T02:52:15.506Z,74.40
2022-11-10T02:52:47.216Z,75.20
2022-11-10T02:53:18.967Z,74.50
2022-11-10T02:53:50.587Z,74.50
2022-11-10T02:54:22.051Z,74.50
2022-11-10T02:54:53.529Z,74.50
2022-11-10T02:55:25.003Z,74.40
2022-11-10T02:55:56.463Z,74.50
2022-11-10T02:56:27.940Z,74.50
2022-11-10T02:56:59.409Z,74.50
2022-11-10T02:57:30.877Z,74.60
2022-11-10T02:58:02.356Z,74.50
2022-11-10T02:58:33.831Z,74.50
2022-11-10T02:59:05.301Z,74.50
2022-11-10T02:59:36.770Z,74.50
2022-11-10T03:00:08.230Z,74.50
2022-11-10T03:00:39.701Z,74.60
2022-11-10T03:01:11.238Z,74.50
2022-11-10T03:01:42.841Z,74.60
2022-11-10T03:02:14.320Z,74.50
2022-11-10T03:02:45.785Z,74.50
2022-11-10T03:03:17.274Z,74.60
2022-11-10T03:03:48.737Z,74.50
2022-11-10T03:04:20.199Z,74.60
2022-11-10T03:04:51.660Z,74.50
2022-11-10T03:05:23.129Z,74.60
2022-11-10T03:05:54.596Z,74.70
2022-11-10T03:06:26.055Z,74.70
2022-11-10T03:06:57.610Z,74.60
2022-11-10T03:07:29.119Z,74.50
2022-11-10T03:08:00.602Z,74.50
2022-11-10T03:08:32.094Z,74.60
2022-11-10T03:09:03.577Z,74.60
2022-11-10T03:09:35.071Z,74.60
2022-11-10T03:10:06.567Z,74.60
2022-11-10T03:10:38.134Z,74.70
2022-11-10T03:11:09.604Z,74.60
2022-11-10T03:11:41.090Z,74.70
2022-11-10T03:12:12.561Z,74.70
2022-11-10T03:12:44.030Z,74.60
2022-11-10T03:13:15.530Z,74.60
2022-11-10T03:14:01.015Z,74.60
2022-11-10T03:14:33.688Z,74.60
2022-11-10T03:15:05.152Z,74.50
2022-11-10T03:15:36.625Z,74.50
2022-11-10T03:16:08.117Z,74.50
2022-11-10T03:16:39.623Z,74.40
2022-11-10T03:17:11.105Z,74.40
2022-11-10T03:17:42.587Z,74.40
2022-11-10T03:18:14.100Z,74.40
2022-11-10T03:18:45.573Z,74.30
2022-11-10T03:19:17.034Z,74.30
2022-11-10T03:19:48.525Z,74.20
2022-11-10T03:20:19.991Z,74.20
2022-11-10T03:20:51.516Z,74.20
2022-11-10T03:21:23.008Z,74.20
2022-11-10T03:21:54.501Z,74.20
2022-11-10T03:22:25.958Z,74.20
2022-11-10T03:22:57.459Z,74.20
2022-11-10T03:23:28.928Z,74.20
2022-11-10T03:24:00.397Z,74.20
2022-11-10T03:24:31.892Z,74.20
2022-11-10T03:25:03.437Z,74.20
2022-11-10T03:25:34.939Z,74.20
2022-11-10T03:26:06.400Z,74.20
2022-11-10T03:26:37.869Z,74.20
2022-11-10T03:27:09.363Z,74.20
2022-11-10T03:27:40.827Z,74.20
2022-11-10T03:28:12.350Z,74.20
2022-11-10T03:28:43.822Z,74.20
2022-11-10T03:29:15.289Z,74.20
2022-11-10T03:29:46.785Z,74.70
2022-11-10T03:30:18.266Z,74.20
2022-11-10T03:30:49.728Z,74.20
2022-11-10T03:31:21.194Z,74.20
2022-11-10T03:31:52.683Z,74.20
2022-11-10T03:32:24.143Z,74.20
2022-11-10T03:32:55.618Z,74.20
2022-11-10T03:33:27.088Z,74.20
2022-11-10T03:33:58.565Z,74.30
2022-11-10T03:34:31.898Z,74.30
2022-11-10T03:35:03.518Z,74.20
2022-11-10T03:35:35.077Z,74.30
2022-11-10T03:36:06.558Z,74.20
2022-11-10T03:36:38.041Z,74.40
2022-11-10T03:37:09.504Z,74.20
2022-11-10T03:37:41.046Z,74.30
2022-11-10T03:38:12.589Z,74.30
2022-11-10T03:38:44.048Z,74.20
2022-11-10T03:39:15.518Z,74.20
2022-11-10T03:39:47.013Z,74.30
2022-11-10T03:40:18.477Z,74.20
2022-11-10T03:41:17.738Z,74.20
2022-11-10T03:41:41.547Z,74.30
2022-11-10T03:42:13.016Z,74.30
2022-11-10T03:42:44.524Z,75.00
2022-11-10T03:43:16.005Z,74.20
2022-11-10T03:43:47.468Z,74.30
2022-11-10T03:44:18.927Z,74.20
2022-11-10T03:44:50.400Z,74.20
2022-11-10T03:45:21.880Z,74.30
2022-11-10T03:45:53.372Z,74.40
2022-11-10T03:46:24.883Z,74.20
2022-11-10T03:46:56.358Z,74.40
2022-11-10T03:47:27.831Z,74.30
2022-11-10T03:47:59.309Z,74.40
2022-11-10T03:48:30.788Z,74.20
2022-11-10T03:49:02.273Z,74.30
2022-11-10T03:49:33.733Z,74.20
2022-11-10T03:50:05.227Z,74.20
2022-11-10T03:50:36.723Z,74.40
2022-11-10T03:51:08.289Z,74.20
2022-11-10T03:51:39.760Z,74.20
2022-11-10T03:52:11.234Z,74.10
2022-11-10T03:52:42.705Z,74.10
2022-11-10T03:53:14.173Z,74.10
2022-11-10T03:53:45.638Z,74.10
2022-11-10T03:54:17.120Z,74.00
2022-11-10T03:54:48.593Z,74.00
2022-11-10T03:55:20.053Z,74.00
2022-11-10T03:55:51.525Z,73.90
2022-11-10T03:56:22.983Z,73.90
2022-11-10T03:56:54.448Z,73.80
2022-11-10T03:57:25.929Z,73.80
2022-11-10T03:57:57.392Z,73.80
2022-11-10T03:58:28.860Z,73.80
2022-11-10T03:59:00.322Z,73.70
2022-11-10T03:59:31.783Z,73.80
2022-11-10T04:00:03.292Z,73.80
2022-11-10T04:00:34.814Z,73.80
2022-11-10T04:01:06.302Z,73.80
2022-11-10T04:01:37.817Z,73.80
2022-11-10T04:02:09.399Z,73.80
2022-11-10T04:02:40.963Z,73.80
2022-11-10T04:03:12.436Z,73.80
2022-11-10T04:03:48.831Z,73.90
2022-11-10T04:04:22.666Z,73.90
2022-11-10T04:04:54.176Z,73.90
2022-11-10T04:05:25.647Z,73.90
2022-11-10T04:05:57.118Z,73.90
2022-11-10T04:06:28.599Z,74.70
2022-11-10T04:07:00.152Z,73.90
2022-11-10T04:07:31.671Z,73.90
2022-11-10T04:08:03.136Z,73.90
2022-11-10T04:08:34.616Z,73.90
2022-11-10T04:09:06.101Z,74.00
2022-11-10T04:09:37.620Z,74.00
2022-11-10T04:10:09.116Z,73.90
2022-11-10T04:10:40.636Z,73.80
2022-11-10T04:11:12.091Z,73.90
2022-11-10T04:11:43.565Z,74.00
2022-11-10T04:12:15.042Z,73.90
2022-11-10T04:12:46.509Z,73.90
2022-11-10T04:13:17.982Z,73.90
2022-11-10T04:13:49.496Z,73.90
2022-11-10T04:14:20.968Z,73.80
2022-11-10T04:14:52.441Z,73.80
2022-11-10T04:15:23.908Z,73.90
2022-11-10T04:15:55.376Z,74.00
2022-11-10T04:16:26.843Z,73.90
2022-11-10T04:16:58.306Z,74.00
2022-11-10T04:17:29.785Z,74.00
2022-11-10T04:18:01.252Z,73.90
2022-11-10T04:18:32.722Z,73.90
2022-11-10T04:19:04.218Z,74.00
2022-11-10T04:19:35.689Z,74.00
2022-11-10T04:20:07.184Z,73.90
2022-11-10T04:20:38.661Z,74.00
2022-11-10T04:21:10.127Z,74.00
2022-11-10T04:21:41.596Z,74.10
2022-11-10T04:22:13.060Z,74.00
2022-11-10T04:22:44.550Z,74.00
2022-11-10T04:23:16.019Z,74.00
2022-11-10T04:23:47.512Z,74.00
2022-11-10T04:24:18.984Z,74.00
2022-11-10T04:24:50.445Z,74.00
2022-11-10T04:25:21.903Z,74.00
2022-11-10T04:25:53.366Z,74.00
2022-11-10T04:26:24.839Z,74.10
2022-11-10T04:26:56.319Z,74.10
2022-11-10T04:27:27.792Z,74.00
2022-11-10T04:27:59.262Z,74.00
2022-11-10T04:28:30.734Z,74.00
2022-11-10T04:29:02.234Z,74.00
2022-11-10T04:29:33.705Z,74.00
2022-11-10T04:30:05.172Z,74.00
2022-11-10T04:30:36.641Z,74.00
2022-11-10T04:31:08.120Z,74.00
2022-11-10T04:31:39.592Z,74.00
2022-11-10T04:32:11.069Z,74.00
2022-11-10T04:32:42.557Z,73.90
2022-11-10T04:33:14.039Z,73.80
2022-11-10T04:33:45.501Z,73.80
2022-11-10T04:34:16.977Z,73.80
2022-11-10T04:34:48.443Z,74.00
2022-11-10T04:35:19.916Z,73.80
2022-11-10T04:35:51.376Z,73.80
2022-11-10T04:36:22.841Z,73.80
2022-11-10T04:36:54.357Z,73.80
2022-11-10T04:37:25.821Z,73.70
2022-11-10T04:37:57.293Z,73.70
2022-11-10T04:38:28.770Z,73.70
2022-11-10T04:39:00.228Z,73.80
2022-11-10T04:39:31.710Z,73.70
2022-11-10T04:40:03.181Z,73.70
2022-11-10T04:40:34.654Z,73.70
2022-11-10T04:41:06.124Z,73.70
2022-11-10T04:41:37.597Z,73.70
2022-11-10T04:42:09.070Z,73.70
2022-11-10T04:42:40.600Z,73.60
2022-11-10T04:43:12.067Z,74.40
2022-11-10T04:43:43.553Z,73.70
2022-11-10T04:44:15.043Z,73.70
2022-11-10T04:44:46.513Z,73.70
2022-11-10T04:45:17.998Z,73.70
2022-11-10T04:45:49.638Z,73.70
2022-11-10T04:46:21.157Z,73.70
2022-11-10T04:46:52.627Z,73.70
2022-11-10T04:47:24.088Z,73.60
2022-11-10T04:47:55.548Z,73.70
2022-11-10T04:48:27.014Z,73.70
2022-11-10T04:48:58.488Z,73.60
2022-11-10T04:49:29.977Z,73.60
2022-11-10T04:50:01.452Z,73.60
2022-11-10T04:50:32.925Z,73.60
2022-11-10T04:51:04.394Z,73.60
2022-11-10T04:51:35.939Z,73.70
2022-11-10T04:52:07.470Z,73.70
2022-11-10T04:52:38.938Z,73.80
2022-11-10T04:53:10.421Z,73.70
2022-11-10T04:53:41.884Z,73.70
2022-11-10T04:54:13.387Z,73.70
2022-11-10T04:54:44.876Z,73.70
2022-11-10T04:55:16.370Z,73.80
2022-11-10T04:55:47.836Z,73.60
2022-11-10T04:56:19.291Z,73.70
2022-11-10T04:56:50.757Z,73.70
2022-11-10T04:57:22.215Z,73.70
2022-11-10T04:57:53.709Z,73.70
2022-11-10T04:58:25.178Z,73.70
2022-11-10T04:58:56.651Z,73.70
2022-11-10T04:59:28.119Z,73.70
2022-11-10T04:59:59.581Z,73.70
2022-11-10T05:00:31.148Z,73.70
2022-11-10T05:01:02.684Z,73.60
2022-11-10T05:01:34.194Z,73.70
2022-11-10T05:02:05.660Z,73.70
2022-11-10T05:02:39.795Z,73.70
2022-11-10T05:03:11.460Z,73.70
2022-11-10T05:03:42.941Z,73.70
2022-11-10T05:04:14.399Z,73.70
2022-11-10T05:04:45.855Z,73.70
2022-11-10T05:05:17.315Z,73.70
2022-11-10T05:05:48.783Z,73.70
2022-11-10T05:06:20.239Z,73.70
2022-11-10T05:06:51.729Z,73.80
2022-11-10T05:07:23.238Z,73.70
2022-11-10T05:07:54.733Z,73.70
2022-11-10T05:08:26.210Z,73.60
2022-11-10T05:08:57.680Z,74.40
2022-11-10T05:09:29.143Z,73.60
2022-11-10T05:10:00.600Z,73.60
2022-11-10T05:10:32.077Z,73.60
2022-11-10T05:11:03.573Z,73.60
2022-11-10T05:11:35.048Z,73.50
2022-11-10T05:12:06.529Z,73.60
2022-11-10T05:12:37.997Z,73.50
2022-11-10T05:13:09.459Z,73.50
2022-11-10T05:13:40.937Z,73.50
2022-11-10T05:14:12.408Z,73.50
2022-11-10T05:14:43.914Z,73.50
2022-11-10T05:15:15.442Z,73.50
2022-11-10T05:15:46.918Z,73.60
2022-11-10T05:16:18.387Z,73.60
2022-11-10T05:16:49.865Z,73.70
2022-11-10T05:17:21.408Z,73.70
2022-11-10T05:17:52.940Z,73.70
2022-11-10T05:18:24.412Z,73.70
2022-11-10T05:18:55.902Z,73.70
2022-11-10T05:19:27.378Z,73.60
2022-11-10T05:19:58.853Z,73.60
2022-11-10T05:20:30.393Z,73.60
2022-11-10T05:21:01.957Z,73.50
2022-11-10T05:21:33.429Z,73.50
2022-11-10T05:22:04.888Z,73.50
2022-11-10T05:22:36.348Z,73.50
2022-11-10T05:23:07.823Z,73.50
2022-11-10T05:23:39.329Z,73.40
2022-11-10T05:24:10.861Z,73.40
2022-11-10T05:24:42.354Z,73.50
2022-11-10T05:25:13.819Z,73.40
2022-11-10T05:25:45.288Z,73.50
2022-11-10T05:26:16.757Z,73.50
2022-11-10T05:26:48.230Z,73.40
2022-11-10T05:27:19.709Z,73.40
2022-11-10T05:27:51.179Z,73.50
2022-11-10T05:28:22.643Z,73.50
2022-11-10T05:28:54.122Z,73.40
2022-11-10T05:29:25.593Z,73.30
2022-11-10T05:29:57.066Z,73.40
2022-11-10T05:30:28.564Z,73.40
2022-11-10T05:31:00.033Z,73.40
2022-11-10T05:31:31.511Z,73.40
2022-11-10T05:32:02.975Z,73.40
2022-11-10T05:32:34.449Z,73.40
2022-11-10T05:33:05.916Z,73.40
2022-11-10T05:33:37.415Z,73.40
2022-11-10T05:34:08.984Z,73.30
2022-11-10T05:34:40.453Z,73.40
2022-11-10T05:35:11.916Z,73.40
2022-11-10T05:35:43.394Z,73.40
2022-11-10T05:36:14.905Z,73.40
2022-11-10T05:36:46.389Z,73.30
2022-11-10T05:37:17.859Z,73.40
2022-11-10T05:37:49.324Z,73.40
2022-11-10T05:38:20.784Z,73.40
2022-11-10T05:38:52.257Z,73.40
2022-11-10T05:39:23.734Z,73.40
2022-11-10T05:39:55.201Z,73.40
2022-11-10T05:40:26.673Z,73.40
2022-11-10T05:40:58.140Z,73.40
2022-11-10T05:41:29.598Z,73.30
2022-11-10T05:42:01.067Z,73.50
2022-11-10T05:42:32.538Z,73.40
2022-11-10T05:43:03.998Z,73.30
2022-11-10T05:43:35.472Z,73.30
2022-11-10T05:44:06.931Z,73.30
2022-11-10T05:44:38.404Z,73.40
2022-11-10T05:45:09.881Z,73.30
2022-11-10T05:45:41.357Z,73.30
2022-11-10T05:46:12.831Z,73.20
2022-11-10T05:46:44.290Z,73.20
2022-11-10T05:47:15.751Z,73.20
2022-11-10T05:47:47.229Z,73.20
2022-11-10T05:48:18.700Z,73.10
2022-11-10T05:48:50.164Z,73.10
2022-11-10T05:49:21.637Z,73.10
2022-11-10T05:49:53.114Z,73.10
2022-11-10T05:50:24.577Z,73.10
2022-11-10T05:50:56.047Z,73.10
2022-11-10T05:51:27.523Z,73.10
2022-11-10T05:51:59.030Z,73.10
2022-11-10T05:52:30.552Z,73.10
2022-11-10T05:53:02.026Z,73.20
2022-11-10T05:53:33.497Z,73.20
2022-11-10T05:54:04.977Z,73.10
2022-11-10T05:54:36.469Z,73.10
2022-11-10T05:55:07.977Z,73.20
2022-11-10T05:55:39.674Z,73.10
2022-11-10T05:56:11.149Z,73.10
2022-11-10T05:56:42.855Z,73.00
2022-11-10T05:57:14.348Z,73.00
2022-11-10T05:57:45.815Z,73.10
2022-11-10T05:58:17.301Z,73.10
2022-11-10T05:58:48.769Z,73.00
2022-11-10T05:59:20.235Z,73.10
2022-11-10T05:59:51.701Z,73.00
2022-11-10T06:00:23.173Z,73.00
2022-11-10T06:00:54.663Z,73.00
2022-11-10T06:01:26.318Z,73.00
2022-11-10T06:01:57.780Z,73.00
2022-11-10T06:02:29.244Z,73.00
2022-11-10T06:03:00.717Z,73.00
2022-11-10T06:03:32.288Z,73.00
2022-11-10T06:04:03.859Z,73.00
2022-11-10T06:04:35.508Z,73.00
2022-11-10T06:05:07.060Z,73.10
2022-11-10T06:05:38.531Z,73.00
2022-11-10T06:06:09.995Z,73.00
2022-11-10T06:06:41.540Z,73.00
2022-11-10T06:07:13.126Z,73.00
2022-11-10T06:07:44.644Z,73.00
2022-11-10T06:08:16.117Z,73.10
2022-11-10T06:08:47.595Z,73.00
2022-11-10T06:09:19.093Z,73.00
2022-11-10T06:09:50.566Z,72.90
2022-11-10T06:10:22.033Z,73.00
2022-11-10T06:10:53.495Z,72.90
2022-11-10T06:11:24.978Z,72.90
2022-11-10T06:11:56.472Z,73.00
2022-11-10T06:12:27.949Z,73.00
2022-11-10T06:12:59.447Z,73.00
2022-11-10T06:13:30.934Z,73.70
2022-11-10T06:14:02.407Z,73.00
2022-11-10T06:14:33.890Z,73.00
2022-11-10T06:15:05.365Z,73.00
2022-11-10T06:15:36.856Z,73.00
2022-11-10T06:16:08.336Z,73.00
2022-11-10T06:16:39.819Z,73.00
2022-11-10T06:17:11.290Z,73.00
2022-11-10T06:17:42.760Z,73.00
2022-11-10T06:18:14.224Z,73.00
2022-11-10T06:18:45.728Z,73.00
2022-11-10T06:19:17.192Z,73.00
2022-11-10T06:19:48.684Z,73.00
2022-11-10T06:20:20.170Z,73.00
2022-11-10T06:20:51.632Z,72.90
2022-11-10T06:21:23.119Z,72.90
2022-11-10T06:22:01.326Z,72.90
2022-11-10T06:22:35.210Z,72.90
2022-11-10T06:23:06.672Z,72.90
2022-11-10T06:23:38.149Z,72.80
2022-11-10T06:24:09.702Z,72.80
2022-11-10T06:24:41.171Z,72.80
2022-11-10T06:25:12.650Z,72.80
2022-11-10T06:25:44.107Z,72.70
2022-11-10T06:26:15.571Z,72.70
2022-11-10T06:26:47.055Z,72.80
2022-11-10T06:27:18.520Z,72.70
2022-11-10T06:27:49.984Z,72.70
2022-11-10T06:28:21.458Z,72.80
2022-11-10T06:28:52.947Z,72.70
2022-11-10T06:29:26.915Z,72.70
2022-11-10T06:29:58.669Z,72.70
2022-11-10T06:30:30.132Z,72.70
2022-11-10T06:31:01.599Z,72.80
2022-11-10T06:31:33.072Z,72.80
2022-11-10T06:32:04.575Z,72.80
2022-11-10T06:32:36.053Z,72.80
2022-11-10T06:33:07.518Z,72.80
2022-11-10T06:33:39.020Z,72.80
2022-11-10T06:34:10.480Z,72.80
2022-11-10T06:34:41.968Z,72.70
2022-11-10T06:35:13.432Z,72.80
2022-11-10T06:35:44.896Z,72.80
2022-11-10T06:36:16.360Z,72.80
2022-11-10T06:36:47.850Z,72.90
2022-11-10T06:37:19.341Z,72.80
2022-11-10T06:37:50.804Z,72.80
2022-11-10T06:38:22.276Z,72.80
2022-11-10T06:38:53.755Z,73.00
2022-11-10T06:39:25.228Z,73.00
2022-11-10T06:39:56.689Z,72.90
2022-11-10T06:40:28.174Z,72.90
2022-11-10T06:40:59.645Z,73.00
2022-11-10T06:41:31.112Z,72.80
2022-11-10T06:42:02.581Z,72.80
2022-11-10T06:42:34.045Z,73.00
2022-11-10T06:43:05.525Z,72.80
2022-11-10T06:43:37.011Z,72.70
2022-11-10T06:44:08.484Z,72.70
2022-11-10T06:44:39.969Z,72.70
2022-11-10T06:45:11.442Z,72.70
2022-11-10T06:45:42.909Z,72.70
2022-11-10T06:46:14.422Z,72.60